Time,TemperatureF,DewpointF,PressureIn,WindDirection,WindDirectionDegrees,WindSpeedMPH,WindSpeedGustMPH,Humidity,HourlyPrecipIn,Conditions,Clouds,dailyrainin,SoftwareType,DateUTC
2013-07-05 00:02:00,53.1,46.7,29.04,WNW,292,2.3,2.3,79,0.00,CLR,OVC,0.00,WeatherDisplay:10.37,2013-07-05 07:02:00,
2013-07-05 00:07:00,53.1,46.7,29.04,West,270,1.2,1.2,79,0.00,CLR,OVC,0.00,WeatherDisplay:10.37,2013-07-05 07:07:00,
2013-07-05 00:12:00,53.1,46.7,29.04,WSW,248,2.3,2.3,79,0.00,CLR,OVC,0.00,WeatherDisplay:10.37,2013-07-05 07:12:00,
2013-07-05 00:17:00,53.2,46.9,29.04,WSW,248,2.6,2.6,79,0.00,CLR,OVC,0.00,WeatherDisplay:10.37,2013-07-05 07:17:00,
2013-07-05 00:22:00,53.2,46.9,29.03,SE,135,1.2,0.0,79,0.00,CLR,OVC,0.00,WeatherDisplay:10.37,2013-07-05 07:22:00,
2013-07-05 00:27:00,53.1,46.7,29.03,NE,45,1.2,1.2,79,0.00,CLR,OVC,0.00,WeatherDisplay:10.37,2013-07-05 07:27:00,
2013-07-05 00:32:00,52.9,46.5,29.03,WSW,248,2.3,0.0,79,0.00,CLR,OVC,0.00,WeatherDisplay:10.37,2013-07-05 07:32:00,
2013-07-05 00:37:00,52.9,46.2,29.03,NNW,338,0.0,0.0,78,0.00,CLR,OVC,0.00,WeatherDisplay:10.37,2013-07-05 07:37:00,
2013-07-05 00:42:00,52.9,46.5,29.03,SW,225,1.2,1.2,79,0.00,CLR,OVC,0.00,WeatherDisplay:10.37,2013-07-05 07:42:00,
2013-07-05 00:47:00,52.9,46.5,29.03,East,90,1.2,1.2,79,0.00,CLR,OVC,0.00,WeatherDisplay:10.37,2013-07-05 07:47:00,
2013-07-05 00:52:00,52.9,46.5,29.03,West,270,1.2,1.2,79,0.00,CLR,OVC,0.00,WeatherDisplay:10.37,2013-07-05 07:52:00,
2013-07-05 00:57:00,52.9,46.5,29.03,WNW,292,1.8,1.8,79,0.00,CLR,OVC,0.00,WeatherDisplay:10.37,2013-07-05 07:57:00,
2013-07-05 01:02:00,53.1,46.7,29.03,North,0,1.2,1.2,79,0.00,CLR,OVC,0.00,WeatherDisplay:10.37,2013-07-05 08:02:00,
2013-07-05 01:07:00,53.1,46.7,29.03,WNW,292,1.2,1.2,79,0.00,CLR,OVC,0.00,WeatherDisplay:10.37,2013-07-05 08:07:00,
2013-07-05 01:12:00,53.2,46.9,29.03,West,270,1.2,1.2,79,0.00,CLR,OVC,0.00,WeatherDisplay:10.37,2013-07-05 08:12:00,
2013-07-05 01:17:00,53.2,46.9,29.03,North,0,2.3,2.3,79,0.00,CLR,OVC,0.00,WeatherDisplay:10.37,2013-07-05 08:17:00,
2013-07-05 01:22:00,53.4,47.1,29.03,WNW,292,1.2,1.2,79,0.00,CLR,OVC,0.00,WeatherDisplay:10.37,2013-07-05 08:22:00,
2013-07-05 01:27:00,53.4,46.7,29.03,West,270,0.9,0.9,78,0.00,CLR,OVC,0.00,WeatherDisplay:10.37,2013-07-05 08:27:00,
2013-07-05 01:32:00,53.2,46.6,29.03,NNE,22,1.2,0.0,78,0.00,CLR,OVC,0.00,WeatherDisplay:10.37,2013-07-05 08:32:00,
2013-07-05 01:37:00,53.1,46.7,29.03,NW,315,0.0,0.7,79,0.00,CLR,OVC,0.00,WeatherDisplay:10.37,2013-07-05 08:37:00,
2013-07-05 01:42:00,53.1,46.7,29.03,WNW,292,0.9,0.9,79,0.00,CLR,OVC,0.00,WeatherDisplay:10.37,2013-07-05 08:42:00,
2013-07-05 01:47:00,52.9,46.5,29.03,WNW,292,1.2,1.2,79,0.00,CLR,OVC,0.00,WeatherDisplay:10.37,2013-07-05 08:47:00,
2013-07-05 01:52:00,52.9,46.5,29.03,NW,315,0.5,0.5,79,0.00,CLR,OVC,0.00,WeatherDisplay:10.37,2013-07-05 08:52:00,
2013-07-05 01:57:00,52.7,46.4,29.03,NNW,338,0.5,0.5,79,0.00,CLR,OVC,0.00,WeatherDisplay:10.37,2013-07-05 08:57:00,
2013-07-05 02:03:00,52.3,46.0,29.03,WNW,292,2.3,0.0,79,0.00,CLR,OVC,0.00,WeatherDisplay:10.37,2013-07-05 09:03:00,
2013-07-05 02:08:00,52.2,46.2,29.03,West,270,1.2,0.0,80,0.00,CLR,OVC,0.00,WeatherDisplay:10.37,2013-07-05 09:08:00,
2013-07-05 02:13:00,52.2,46.2,29.03,NNE,22,0.0,0.0,80,0.00,CLR,OVC,0.00,WeatherDisplay:10.37,2013-07-05 09:13:00,
2013-07-05 02:18:00,52.0,46.0,29.03,West,270,1.2,1.2,80,0.00,CLR,OVC,0.00,WeatherDisplay:10.37,2013-07-05 09:18:00,
2013-07-05 02:23:00,52.0,46.3,29.03,NW,315,1.2,0.0,81,0.00,CLR,OVC,0.00,WeatherDisplay:10.37,2013-07-05 09:23:00,
2013-07-05 02:29:00,52.0,46.3,29.02,WNW,292,2.0,2.0,81,0.00,CLR,OVC,0.00,WeatherDisplay:10.37,2013-07-05 09:29:00,
2013-07-05 02:34:00,52.0,46.3,29.02,NW,315,0.9,0.9,81,0.00,CLR,OVC,0.00,WeatherDisplay:10.37,2013-07-05 09:34:00,
2013-07-05 02:40:00,52.2,46.5,29.02,West,270,0.0,0.0,81,0.00,CLR,OVC,0.00,WeatherDisplay:10.37,2013-07-05 09:40:00,
2013-07-05 02:45:00,52.2,46.5,29.02,West,270,0.5,0.5,81,0.00,CLR,OVC,0.00,WeatherDisplay:10.37,2013-07-05 09:45:00,
2013-07-05 02:50:00,52.3,46.7,29.02,SE,135,1.2,1.2,81,0.00,CLR,OVC,0.00,WeatherDisplay:10.37,2013-07-05 09:50:00,
2013-07-05 02:55:00,52.3,46.7,29.02,West,270,1.2,1.2,81,0.00,CLR,OVC,0.00,WeatherDisplay:10.37,2013-07-05 09:55:00,
2013-07-05 03:00:00,52.3,46.7,29.02,SE,135,1.2,1.2,81,0.00,CLR,OVC,0.00,WeatherDisplay:10.37,2013-07-05 10:00:00,
2013-07-05 03:05:00,52.3,46.7,29.02,SE,135,1.2,1.2,81,0.00,CLR,OVC,0.00,WeatherDisplay:10.37,2013-07-05 10:05:00,
2013-07-05 03:10:00,52.3,46.7,29.02,SE,135,1.2,0.0,81,0.00,CLR,OVC,0.00,WeatherDisplay:10.37,2013-07-05 10:10:00,
2013-07-05 03:15:00,52.2,46.5,29.02,West,270,1.2,1.2,81,0.00,CLR,OVC,0.00,WeatherDisplay:10.37,2013-07-05 10:15:00,
2013-07-05 03:21:00,52.0,46.3,29.02,ESE,112,0.0,0.0,81,0.00,CLR,OVC,0.00,WeatherDisplay:10.37,2013-07-05 10:21:00,
2013-07-05 03:26:00,51.8,46.2,29.01,South,180,0.0,0.0,81,0.00,CLR,OVC,0.00,WeatherDisplay:10.37,2013-07-05 10:26:00,
2013-07-05 03:32:00,51.6,46.0,29.01,SSE,158,1.2,0.0,81,0.00,CLR,OVC,0.00,WeatherDisplay:10.37,2013-07-05 10:32:00,
2013-07-05 03:37:00,51.6,46.3,29.01,East,90,1.2,1.2,82,0.00,CLR,OVC,0.00,WeatherDisplay:10.37,2013-07-05 10:37:00,
2013-07-05 03:42:00,51.6,46.3,29.01,ESE,112,0.7,0.7,82,0.00,CLR,OVC,0.00,WeatherDisplay:10.37,2013-07-05 10:42:00,
2013-07-05 03:47:00,51.4,46.1,29.01,SE,135,1.2,1.2,82,0.00,CLR,OVC,0.00,WeatherDisplay:10.37,2013-07-05 10:47:00,
2013-07-05 03:52:00,51.4,46.1,29.01,SSW,202,2.3,2.3,82,0.00,CLR,OVC,0.00,WeatherDisplay:10.37,2013-07-05 10:52:00,
2013-07-05 03:58:00,51.4,46.1,29.01,ENE,68,0.7,0.7,82,0.00,CLR,OVC,0.00,WeatherDisplay:10.37,2013-07-05 10:58:00,
2013-07-05 04:03:00,51.4,46.1,29.01,SE,135,0.0,0.0,82,0.00,CLR,OVC,0.00,WeatherDisplay:10.37,2013-07-05 11:03:00,
2013-07-05 04:08:00,51.6,46.6,29.01,East,90,3.3,3.3,83,0.00,CLR,OVC,0.00,WeatherDisplay:10.37,2013-07-05 11:08:00,
2013-07-05 04:13:00,51.8,46.8,29.01,SSW,202,1.2,1.2,83,0.00,CLR,OVC,0.00,WeatherDisplay:10.37,2013-07-05 11:13:00,
2013-07-05 04:18:00,51.8,46.5,29.01,SSW,202,1.2,0.0,82,0.00,CLR,OVC,0.00,WeatherDisplay:10.37,2013-07-05 11:18:00,
2013-07-05 04:24:00,52.0,47.0,29.01,SW,225,1.2,1.2,83,0.00,CLR,OVC,0.00,WeatherDisplay:10.37,2013-07-05 11:24:00,
2013-07-05 04:29:00,52.2,47.2,29.01,NW,315,1.6,1.6,83,0.00,CLR,OVC,0.00,WeatherDisplay:10.37,2013-07-05 11:29:00,
2013-07-05 04:34:00,52.5,47.5,29.01,SSW,202,1.2,1.2,83,0.00,CLR,OVC,0.00,WeatherDisplay:10.37,2013-07-05 11:34:00,
2013-07-05 04:39:00,52.7,47.4,29.00,ESE,112,1.2,1.2,82,0.00,CLR,OVC,0.00,WeatherDisplay:10.37,2013-07-05 11:39:00,
2013-07-05 04:45:00,52.9,47.5,29.01,West,270,1.2,0.0,82,0.00,CLR,OVC,0.00,WeatherDisplay:10.37,2013-07-05 11:45:00,
2013-07-05 04:50:00,52.9,47.5,29.01,NW,315,1.8,1.8,82,0.00,CLR,OVC,0.00,WeatherDisplay:10.37,2013-07-05 11:50:00,
2013-07-05 04:56:00,53.1,47.7,29.01,ESE,112,2.0,2.0,82,0.00,CLR,OVC,0.00,WeatherDisplay:10.37,2013-07-05 11:56:00,
2013-07-05 05:01:00,53.1,47.7,29.01,ESE,112,0.5,0.0,82,0.00,CLR,OVC,0.00,WeatherDisplay:10.37,2013-07-05 12:01:00,
2013-07-05 05:06:00,53.1,47.7,29.01,West,270,1.2,0.0,82,0.00,CLR,OVC,0.00,WeatherDisplay:10.37,2013-07-05 12:06:00,
2013-07-05 05:11:00,53.1,47.7,29.01,South,180,0.5,0.5,82,0.00,CLR,OVC,0.00,WeatherDisplay:10.37,2013-07-05 12:11:00,
2013-07-05 05:16:00,53.1,47.7,29.01,West,270,1.2,0.0,82,0.00,CLR,OVC,0.00,WeatherDisplay:10.37,2013-07-05 12:16:00,
2013-07-05 05:21:00,53.1,47.7,29.01,SSE,158,2.3,2.3,82,0.00,CLR,OVC,0.00,WeatherDisplay:10.37,2013-07-05 12:21:00,
2013-07-05 05:27:00,53.1,47.4,29.01,South,180,1.2,1.2,81,0.00,CLR,OVC,0.00,WeatherDisplay:10.37,2013-07-05 12:27:00,
2013-07-05 05:32:00,53.1,47.4,29.01,SE,135,1.2,1.2,81,0.00,CLR,OVC,0.00,WeatherDisplay:10.37,2013-07-05 12:32:00,
2013-07-05 05:37:00,53.1,47.4,29.00,SSW,202,1.2,1.2,81,0.00,CLR,OVC,0.00,WeatherDisplay:10.37,2013-07-05 12:37:00,
2013-07-05 05:42:00,53.1,47.4,29.01,SW,225,0.2,0.2,81,0.00,CLR,OVC,0.00,WeatherDisplay:10.37,2013-07-05 12:42:00,
2013-07-05 05:47:00,53.2,47.6,29.01,WNW,292,1.2,0.0,81,0.00,CLR,OVC,0.00,WeatherDisplay:10.37,2013-07-05 12:47:00,
2013-07-05 05:53:00,53.2,47.6,29.01,SE,135,0.5,0.5,81,0.00,CLR,OVC,0.00,WeatherDisplay:10.37,2013-07-05 12:53:00,
2013-07-05 05:58:00,53.2,47.6,29.01,SSW,202,0.0,0.0,81,0.00,CLR,OVC,0.00,WeatherDisplay:10.37,2013-07-05 12:58:00,
2013-07-05 06:03:00,53.4,47.7,29.01,WNW,292,0.0,0.0,81,0.00,CLR,OVC,0.00,WeatherDisplay:10.37,2013-07-05 13:03:00,
2013-07-05 06:08:00,53.6,47.9,29.01,ENE,68,0.7,0.7,81,0.00,CLR,OVC,0.00,WeatherDisplay:10.37,2013-07-05 13:08:00,
2013-07-05 06:13:00,53.6,47.6,29.01,WSW,248,1.8,1.8,80,0.00,CLR,OVC,0.00,WeatherDisplay:10.37,2013-07-05 13:13:00,
2013-07-05 06:18:00,53.6,47.6,29.01,WNW,292,1.2,1.2,80,0.00,CLR,OVC,0.00,WeatherDisplay:10.37,2013-07-05 13:18:00,
2013-07-05 06:24:00,53.8,47.8,29.01,WSW,248,2.3,2.3,80,0.00,CLR,OVC,0.00,WeatherDisplay:10.37,2013-07-05 13:24:00,
2013-07-05 06:29:00,54.0,47.9,29.01,SW,225,2.3,2.3,80,0.00,CLR,OVC,0.00,WeatherDisplay:10.37,2013-07-05 13:29:00,
2013-07-05 06:35:00,54.3,47.9,29.01,SW,225,1.2,1.2,79,0.00,CLR,OVC,0.00,WeatherDisplay:10.37,2013-07-05 13:35:00,
2013-07-05 06:40:00,54.3,47.9,29.01,ESE,112,2.4,2.4,79,0.00,CLR,OVC,0.00,WeatherDisplay:10.37,2013-07-05 13:40:00,
2013-07-05 06:45:00,54.7,48.3,29.01,SW,225,1.2,1.2,79,0.00,CLR,OVC,0.00,WeatherDisplay:10.37,2013-07-05 13:45:00,
2013-07-05 06:50:00,54.9,48.5,29.01,SW,225,1.4,1.4,79,0.00,CLR,OVC,0.00,WeatherDisplay:10.37,2013-07-05 13:50:00,
2013-07-05 06:55:00,54.9,48.5,29.01,SW,225,2.3,2.3,79,0.00,CLR,OVC,0.00,WeatherDisplay:10.37,2013-07-05 13:55:00,
2013-07-05 07:01:00,54.9,48.5,29.02,WSW,248,0.0,0.0,79,0.00,CLR,OVC,0.00,WeatherDisplay:10.37,2013-07-05 14:01:00,
2013-07-05 07:06:00,55.0,48.6,29.02,West,270,1.6,1.6,79,0.00,CLR,OVC,0.00,WeatherDisplay:10.37,2013-07-05 14:06:00,
2013-07-05 07:12:00,55.0,48.3,29.02,WNW,292,0.0,0.0,78,0.00,CLR,OVC,0.00,WeatherDisplay:10.37,2013-07-05 14:12:00,
2013-07-05 07:17:00,55.2,48.8,29.02,WNW,292,0.0,0.0,79,0.00,CLR,OVC,0.00,WeatherDisplay:10.37,2013-07-05 14:17:00,
2013-07-05 07:22:00,55.2,48.8,29.02,WSW,248,2.0,2.0,79,0.00,CLR,OVC,0.00,WeatherDisplay:10.37,2013-07-05 14:22:00,
2013-07-05 07:27:00,55.4,49.0,29.02,West,270,1.2,1.2,79,0.00,CLR,OVC,0.00,WeatherDisplay:10.37,2013-07-05 14:27:00,
2013-07-05 07:32:00,55.6,49.2,29.02,West,270,0.0,0.0,79,0.00,CLR,OVC,0.00,WeatherDisplay:10.37,2013-07-05 14:32:00,
2013-07-05 07:38:00,55.8,49.3,29.02,West,270,1.2,1.2,79,0.00,CLR,OVC,0.00,WeatherDisplay:10.37,2013-07-05 14:38:00,
2013-07-05 07:44:00,55.9,49.5,29.02,WSW,248,1.2,1.2,79,0.00,CLR,OVC,0.00,WeatherDisplay:10.37,2013-07-05 14:44:00,
2013-07-05 07:51:00,56.5,50.0,29.02,SW,225,1.2,1.2,79,0.00,CLR,OVC,0.00,WeatherDisplay:10.37,2013-07-05 14:51:00,
2013-07-05 07:56:00,56.8,50.4,29.02,WSW,248,1.2,1.2,79,0.00,CLR,OVC,0.00,WeatherDisplay:10.37,2013-07-05 14:56:00,
2013-07-05 08:01:00,57.2,50.4,29.02,SE,135,0.0,0.0,78,0.00,CLR,OVC,0.00,WeatherDisplay:10.37,2013-07-05 15:01:00,
2013-07-05 08:06:00,57.6,50.4,29.02,NNW,338,1.2,0.0,77,0.00,CLR,OVC,0.00,WeatherDisplay:10.37,2013-07-05 15:06:00,
2013-07-05 08:11:00,57.9,50.4,29.03,SW,225,2.3,2.3,76,0.00,CLR,OVC,0.00,WeatherDisplay:10.37,2013-07-05 15:11:00,
2013-07-05 08:16:00,57.9,50.4,29.03,West,270,2.3,2.3,76,0.00,CLR,OVC,0.00,WeatherDisplay:10.37,2013-07-05 15:16:00,
2013-07-05 08:23:00,58.3,50.7,29.02,WSW,248,2.3,2.3,76,0.00,CLR,OVC,0.00,WeatherDisplay:10.37,2013-07-05 15:23:00,
2013-07-05 08:28:00,58.8,51.3,29.02,WSW,248,1.2,1.2,76,0.00,CLR,OVC,0.00,WeatherDisplay:10.37,2013-07-05 15:28:00,
2013-07-05 08:33:00,59.0,50.7,29.03,WSW,248,2.3,2.3,74,0.00,CLR,OVC,0.00,WeatherDisplay:10.37,2013-07-05 15:33:00,
2013-07-05 08:38:00,58.8,50.9,29.03,SW,225,1.2,1.2,75,0.00,CLR,OVC,0.00,WeatherDisplay:10.37,2013-07-05 15:38:00,
2013-07-05 08:43:00,59.0,51.1,29.03,NW,315,0.0,0.2,75,0.00,CLR,OVC,0.00,WeatherDisplay:10.37,2013-07-05 15:43:00,
2013-07-05 08:48:00,59.2,50.9,29.03,NW,315,1.2,1.2,74,0.00,CLR,OVC,0.00,WeatherDisplay:10.37,2013-07-05 15:48:00,
2013-07-05 08:50:00,59.2,50.9,29.02,WSW,248,2.3,2.3,74,0.00,CLR,OVC,0.00,WeatherDisplay:10.37,2013-07-05 15:50:00,
2013-07-05 08:55:00,59.2,50.9,29.03,North,0,3.5,3.5,74,0.00,CLR,OVC,0.00,WeatherDisplay:10.37,2013-07-05 15:55:00,
2013-07-05 09:00:00,59.4,51.1,29.03,SE,135,1.2,1.2,74,0.00,CLR,OVC,0.00,WeatherDisplay:10.37,2013-07-05 16:00:00,
2013-07-05 09:05:00,59.7,51.8,29.02,SSE,158,1.8,1.8,75,0.00,CLR,OVC,0.00,WeatherDisplay:10.37,2013-07-05 16:05:00,
2013-07-05 09:10:00,60.3,51.9,29.02,SW,225,1.2,1.2,74,0.00,CLR,OVC,0.00,WeatherDisplay:10.37,2013-07-05 16:10:00,
2013-07-05 09:15:00,61.0,52.3,29.02,WSW,248,1.4,1.4,73,0.00,CLR,OVC,0.00,WeatherDisplay:10.37,2013-07-05 16:15:00,
2013-07-05 09:20:00,61.5,52.8,29.03,WNW,292,2.3,2.3,73,0.00,CLR,OVC,0.00,WeatherDisplay:10.37,2013-07-05 16:20:00,
2013-07-05 09:25:00,61.5,52.4,29.03,WSW,248,2.3,2.3,72,0.00,CLR,OVC,0.00,WeatherDisplay:10.37,2013-07-05 16:25:00,
2013-07-05 09:30:00,61.7,52.6,29.02,SW,225,1.2,1.2,72,0.00,CLR,OVC,0.00,WeatherDisplay:10.37,2013-07-05 16:30:00,
2013-07-05 09:35:00,61.9,52.8,29.03,NW,315,2.3,2.3,72,0.00,CLR,OVC,0.00,WeatherDisplay:10.37,2013-07-05 16:35:00,
2013-07-05 09:40:00,61.7,52.2,29.03,WSW,248,1.2,1.2,71,0.00,CLR,OVC,0.00,WeatherDisplay:10.37,2013-07-05 16:40:00,
2013-07-05 09:45:00,62.2,53.1,29.02,SW,225,2.2,2.2,72,0.00,CLR,OVC,0.00,WeatherDisplay:10.37,2013-07-05 16:45:00,
2013-07-05 09:50:00,62.2,52.7,29.02,SSE,158,2.3,2.3,71,0.00,CLR,OVC,0.00,WeatherDisplay:10.37,2013-07-05 16:50:00,
2013-07-05 09:55:00,62.1,52.2,29.02,WSW,248,2.3,2.3,70,0.00,CLR,OVC,0.00,WeatherDisplay:10.37,2013-07-05 16:55:00,
2013-07-05 10:00:00,61.9,51.6,29.02,WSW,248,1.2,1.2,69,0.00,CLR,OVC,0.00,WeatherDisplay:10.37,2013-07-05 17:00:00,
2013-07-05 10:05:00,62.1,52.5,29.02,WSW,248,1.2,1.2,71,0.00,CLR,OVC,0.00,WeatherDisplay:10.37,2013-07-05 17:05:00,
2013-07-05 10:10:00,62.2,52.7,29.02,SW,225,1.2,0.0,71,0.00,CLR,OVC,0.00,WeatherDisplay:10.37,2013-07-05 17:10:00,
2013-07-05 10:15:00,62.6,52.7,29.02,WNW,292,1.2,1.2,70,0.00,CLR,OVC,0.00,WeatherDisplay:10.37,2013-07-05 17:15:00,
2013-07-05 10:20:00,62.2,52.3,29.02,WSW,248,2.3,2.3,70,0.00,CLR,OVC,0.00,WeatherDisplay:10.37,2013-07-05 17:20:00,
2013-07-05 10:25:00,62.1,52.2,29.02,West,270,2.3,2.3,70,0.00,CLR,OVC,0.00,WeatherDisplay:10.37,2013-07-05 17:25:00,
2013-07-05 10:30:00,61.9,51.6,29.02,SW,225,2.3,2.3,69,0.00,CLR,OVC,0.00,WeatherDisplay:10.37,2013-07-05 17:30:00,
2013-07-05 10:35:00,61.5,51.3,29.02,West,270,2.3,2.4,69,0.00,CLR,OVC,0.00,WeatherDisplay:10.37,2013-07-05 17:35:00,
2013-07-05 10:40:00,61.0,50.7,29.02,ESE,112,2.3,2.3,69,0.00,CLR,OVC,0.00,WeatherDisplay:10.37,2013-07-05 17:40:00,
2013-07-05 10:45:00,60.8,50.6,29.02,WNW,292,3.5,3.5,69,0.00,CLR,OVC,0.00,WeatherDisplay:10.37,2013-07-05 17:45:00,
2013-07-05 10:50:00,60.8,51.0,29.03,West,270,1.6,1.6,70,0.00,CLR,OVC,0.00,WeatherDisplay:10.37,2013-07-05 17:50:00,
2013-07-05 10:55:00,60.8,51.0,29.03,West,270,1.2,2.0,70,0.00,CLR,OVC,0.00,WeatherDisplay:10.37,2013-07-05 17:55:00,
2013-07-05 11:00:00,60.4,50.6,29.03,SW,225,1.2,1.2,70,0.00,CLR,OVC,0.00,WeatherDisplay:10.37,2013-07-05 18:00:00,
2013-07-05 11:05:00,60.4,51.0,29.03,WSW,248,2.3,2.3,71,0.00,CLR,OVC,0.00,WeatherDisplay:10.37,2013-07-05 18:05:00,
2013-07-05 11:10:00,60.6,51.2,29.02,WSW,248,1.8,1.8,71,0.00,CLR,OVC,0.00,WeatherDisplay:10.37,2013-07-05 18:10:00,
2013-07-05 11:15:00,60.8,51.0,29.02,WSW,248,1.2,1.2,70,0.00,CLR,OVC,0.00,WeatherDisplay:10.37,2013-07-05 18:15:00,
2013-07-05 11:20:00,61.0,51.5,29.02,SSW,202,1.2,1.2,71,0.00,CLR,OVC,0.00,WeatherDisplay:10.37,2013-07-05 18:20:00,
2013-07-05 11:25:00,61.3,51.5,29.02,WSW,248,1.2,1.2,70,0.00,CLR,OVC,0.00,WeatherDisplay:10.37,2013-07-05 18:25:00,
2013-07-05 11:30:00,61.7,51.8,29.03,SE,135,1.2,1.2,70,0.00,CLR,OVC,0.00,WeatherDisplay:10.37,2013-07-05 18:30:00,
2013-07-05 11:35:00,62.2,52.3,29.02,West,270,1.2,1.2,70,0.00,CLR,OVC,0.00,WeatherDisplay:10.37,2013-07-05 18:35:00,
2013-07-05 11:40:00,61.9,52.0,29.03,NW,315,1.2,1.2,70,0.00,CLR,OVC,0.00,WeatherDisplay:10.37,2013-07-05 18:40:00,
2013-07-05 11:45:00,61.9,51.6,29.02,West,270,1.2,1.2,69,0.00,CLR,OVC,0.00,WeatherDisplay:10.37,2013-07-05 18:45:00,
2013-07-05 11:50:00,61.9,51.6,29.03,West,270,2.3,2.3,69,0.00,CLR,OVC,0.00,WeatherDisplay:10.37,2013-07-05 18:50:00,
2013-07-05 11:55:00,61.9,52.0,29.02,WNW,292,1.2,1.2,70,0.00,CLR,OVC,0.00,WeatherDisplay:10.37,2013-07-05 18:55:00,
2013-07-05 12:00:00,62.2,52.3,29.02,SW,225,2.3,2.3,70,0.00,CLR,OVC,0.00,WeatherDisplay:10.37,2013-07-05 19:00:00,
2013-07-05 12:05:00,62.4,52.5,29.02,WNW,292,2.3,2.3,70,0.00,CLR,OVC,0.00,WeatherDisplay:10.37,2013-07-05 19:05:00,
2013-07-05 12:10:00,63.0,52.6,29.02,WSW,248,3.5,3.5,69,0.00,CLR,OVC,0.00,WeatherDisplay:10.37,2013-07-05 19:10:00,
2013-07-05 12:15:00,63.3,53.4,29.02,West,270,1.2,1.2,70,0.00,CLR,OVC,0.00,WeatherDisplay:10.37,2013-07-05 19:15:00,
2013-07-05 12:20:00,64.2,53.8,29.02,WSW,248,2.3,2.3,69,0.00,CLR,OVC,0.00,WeatherDisplay:10.37,2013-07-05 19:20:00,
2013-07-05 12:25:00,64.8,53.5,29.02,SE,135,2.3,2.3,67,0.00,CLR,OVC,0.00,WeatherDisplay:10.37,2013-07-05 19:25:00,
2013-07-05 12:30:00,64.8,53.5,29.02,WNW,292,2.3,2.3,67,0.00,CLR,OVC,0.00,WeatherDisplay:10.37,2013-07-05 19:30:00,
2013-07-05 12:35:00,64.9,53.3,29.03,SW,225,3.5,3.5,66,0.00,CLR,OVC,0.00,WeatherDisplay:10.37,2013-07-05 19:35:00,
2013-07-05 12:40:00,65.3,53.6,29.02,WNW,292,1.2,1.2,66,0.00,CLR,OVC,0.00,WeatherDisplay:10.37,2013-07-05 19:40:00,
2013-07-05 12:45:00,65.5,53.4,29.02,SW,225,1.2,1.2,65,0.00,CLR,OVC,0.00,WeatherDisplay:10.37,2013-07-05 19:45:00,
2013-07-05 12:51:00,66.2,54.5,29.02,West,270,2.3,2.3,66,0.00,CLR,OVC,0.00,WeatherDisplay:10.37,2013-07-05 19:51:00,
2013-07-05 12:56:00,66.7,54.6,29.02,WSW,248,1.2,1.2,65,0.00,CLR,OVC,0.00,WeatherDisplay:10.37,2013-07-05 19:56:00,
2013-07-05 13:01:00,67.3,54.3,29.02,WNW,292,2.3,2.3,63,0.00,CLR,OVC,0.00,WeatherDisplay:10.37,2013-07-05 20:01:00,
2013-07-05 13:06:00,67.1,54.1,29.02,SSW,202,3.5,3.5,63,0.00,CLR,OVC,0.00,WeatherDisplay:10.37,2013-07-05 20:06:00,
2013-07-05 13:11:00,67.1,54.1,29.02,WSW,248,3.5,3.5,63,0.00,CLR,OVC,0.00,WeatherDisplay:10.37,2013-07-05 20:11:00,
2013-07-05 13:16:00,67.8,54.8,29.02,WNW,292,2.3,2.3,63,0.00,CLR,OVC,0.00,WeatherDisplay:10.37,2013-07-05 20:16:00,
2013-07-05 13:21:00,68.5,55.0,29.02,SE,135,2.3,2.3,62,0.00,CLR,OVC,0.00,WeatherDisplay:10.37,2013-07-05 20:21:00,
2013-07-05 13:26:00,69.1,55.1,29.02,SE,135,2.3,2.3,61,0.00,CLR,OVC,0.00,WeatherDisplay:10.37,2013-07-05 20:26:00,
2013-07-05 13:31:00,69.4,54.9,29.01,West,270,2.3,2.3,60,0.00,CLR,OVC,0.00,WeatherDisplay:10.37,2013-07-05 20:31:00,
2013-07-05 13:36:00,70.5,55.5,29.01,South,180,2.3,2.3,59,0.00,CLR,OVC,0.00,WeatherDisplay:10.37,2013-07-05 20:36:00,
2013-07-05 13:41:00,71.4,55.9,29.01,West,270,2.3,2.3,58,0.00,CLR,OVC,0.00,WeatherDisplay:10.37,2013-07-05 20:41:00,
2013-07-05 13:46:00,72.1,56.5,29.01,WSW,248,2.3,2.3,58,0.00,CLR,OVC,0.00,WeatherDisplay:10.37,2013-07-05 20:46:00,
2013-07-05 13:51:00,73.0,54.9,29.01,NW,315,3.8,3.8,53,0.00,CLR,OVC,0.00,WeatherDisplay:10.37,2013-07-05 20:51:00,
2013-07-05 13:56:00,72.5,55.4,29.01,SW,225,3.5,3.5,55,0.00,CLR,OVC,0.00,WeatherDisplay:10.37,2013-07-05 20:56:00,
2013-07-05 14:01:00,73.6,56.4,29.01,West,270,3.5,3.5,55,0.00,CLR,OVC,0.00,WeatherDisplay:10.37,2013-07-05 21:01:00,
2013-07-05 14:06:00,74.5,56.2,29.01,SW,225,2.6,2.6,53,0.00,CLR,OVC,0.00,WeatherDisplay:10.37,2013-07-05 21:06:00,
2013-07-05 14:11:00,75.2,55.8,29.01,North,0,3.5,3.5,51,0.00,CLR,OVC,0.00,WeatherDisplay:10.37,2013-07-05 21:11:00,
2013-07-05 14:16:00,74.8,54.9,29.01,WNW,292,3.5,3.5,50,0.00,CLR,OVC,0.00,WeatherDisplay:10.37,2013-07-05 21:16:00,
2013-07-05 14:21:00,74.5,55.7,29.01,WNW,292,3.1,3.1,52,0.00,CLR,OVC,0.00,WeatherDisplay:10.37,2013-07-05 21:21:00,
2013-07-05 14:22:00,74.5,55.2,29.01,WSW,248,3.5,3.5,51,0.00,CLR,OVC,0.00,WeatherDisplay:10.37,2013-07-05 21:22:00,
2013-07-05 14:27:00,74.7,55.9,29.00,WSW,248,2.3,2.3,52,0.00,CLR,OVC,0.00,WeatherDisplay:10.37,2013-07-05 21:27:00,
2013-07-05 14:32:00,75.2,55.8,29.00,West,270,2.3,2.3,51,0.00,CLR,OVC,0.00,WeatherDisplay:10.37,2013-07-05 21:32:00,
2013-07-05 14:37:00,75.2,55.3,29.00,SW,225,3.5,3.5,50,0.00,CLR,OVC,0.00,WeatherDisplay:10.37,2013-07-05 21:37:00,
2013-07-05 14:42:00,75.4,54.9,29.00,WNW,292,1.6,1.6,49,0.00,CLR,OVC,0.00,WeatherDisplay:10.37,2013-07-05 21:42:00,
2013-07-05 14:47:00,75.2,54.2,29.00,NE,45,3.5,3.5,48,0.00,CLR,OVC,0.00,WeatherDisplay:10.37,2013-07-05 21:47:00,
2013-07-05 14:52:00,74.8,54.9,29.00,South,180,2.3,2.3,50,0.00,CLR,OVC,0.00,WeatherDisplay:10.37,2013-07-05 21:52:00,
2013-07-05 14:57:00,75.2,54.2,29.00,WNW,292,2.4,2.4,48,0.00,CLR,OVC,0.00,WeatherDisplay:10.37,2013-07-05 21:57:00,
2013-07-05 15:02:00,74.5,52.9,29.00,WSW,248,6.9,6.9,47,0.00,CLR,OVC,0.00,WeatherDisplay:10.37,2013-07-05 22:02:00,
2013-07-05 15:07:00,73.8,53.4,29.00,NW,315,5.8,5.8,49,0.00,CLR,OVC,0.00,WeatherDisplay:10.37,2013-07-05 22:07:00,
2013-07-05 15:12:00,73.9,54.7,29.00,South,180,5.8,5.8,51,0.00,CLR,OVC,0.00,WeatherDisplay:10.37,2013-07-05 22:12:00,
2013-07-05 15:17:00,74.8,54.4,28.99,NW,315,5.8,5.8,49,0.00,CLR,OVC,0.00,WeatherDisplay:10.37,2013-07-05 22:17:00,
2013-07-05 15:22:00,75.2,54.7,28.99,WSW,248,3.5,3.5,49,0.00,CLR,OVC,0.00,WeatherDisplay:10.37,2013-07-05 22:22:00,
2013-07-05 15:27:00,75.9,54.8,28.99,SW,225,3.5,3.5,48,0.00,CLR,OVC,0.00,WeatherDisplay:10.37,2013-07-05 22:27:00,
2013-07-05 15:32:00,75.9,54.8,28.99,WSW,248,4.6,4.6,48,0.00,CLR,OVC,0.00,WeatherDisplay:10.37,2013-07-05 22:32:00,
2013-07-05 15:37:00,77.4,55.0,28.99,West,270,3.5,3.5,46,0.00,CLR,OVC,0.00,WeatherDisplay:10.37,2013-07-05 22:37:00,
2013-07-05 15:42:00,77.7,55.3,28.98,WNW,292,3.6,3.6,46,0.00,CLR,OVC,0.00,WeatherDisplay:10.37,2013-07-05 22:42:00,
2013-07-05 15:47:00,77.0,54.6,28.98,WNW,292,2.3,2.3,46,0.00,CLR,OVC,0.00,WeatherDisplay:10.37,2013-07-05 22:47:00,
2013-07-05 15:52:00,77.0,55.2,28.98,ESE,112,3.5,3.5,47,0.00,CLR,OVC,0.00,WeatherDisplay:10.37,2013-07-05 22:52:00,
2013-07-05 15:57:00,76.8,55.1,28.98,SSE,158,3.5,3.5,47,0.00,CLR,OVC,0.00,WeatherDisplay:10.37,2013-07-05 22:57:00,
2013-07-05 16:02:00,77.5,55.1,28.98,WSW,248,3.5,3.5,46,0.00,CLR,OVC,0.00,WeatherDisplay:10.37,2013-07-05 23:02:00,
2013-07-05 16:07:00,77.9,53.6,28.97,SW,225,2.3,2.3,43,0.00,CLR,OVC,0.00,WeatherDisplay:10.37,2013-07-05 23:07:00,
2013-07-05 16:12:00,78.3,54.6,28.97,ESE,112,2.3,0.0,44,0.00,CLR,OVC,0.00,WeatherDisplay:10.37,2013-07-05 23:12:00,
2013-07-05 16:17:00,79.7,55.9,28.97,SW,225,2.3,2.3,44,0.00,CLR,OVC,0.00,WeatherDisplay:10.37,2013-07-05 23:17:00,
2013-07-05 16:22:00,79.9,55.4,28.97,East,90,3.5,3.5,43,0.00,CLR,OVC,0.00,WeatherDisplay:10.37,2013-07-05 23:22:00,
2013-07-05 16:27:00,78.1,53.8,28.97,WSW,248,1.4,1.4,43,0.00,CLR,OVC,0.00,WeatherDisplay:10.37,2013-07-05 23:27:00,
2013-07-05 16:32:00,78.1,54.4,28.97,WNW,292,2.4,2.4,44,0.00,CLR,OVC,0.00,WeatherDisplay:10.37,2013-07-05 23:32:00,
2013-07-05 16:37:00,79.5,55.7,28.97,SW,225,2.3,2.3,44,0.00,CLR,OVC,0.00,WeatherDisplay:10.37,2013-07-05 23:37:00,
2013-07-05 16:42:00,81.0,55.7,28.97,SW,225,4.6,4.6,42,0.00,CLR,OVC,0.00,WeatherDisplay:10.37,2013-07-05 23:42:00,
2013-07-05 16:47:00,81.3,56.0,28.96,West,270,2.4,2.4,42,0.00,CLR,OVC,0.00,WeatherDisplay:10.37,2013-07-05 23:47:00,
2013-07-05 16:52:00,82.4,56.3,28.96,West,270,2.3,2.3,41,0.00,CLR,OVC,0.00,WeatherDisplay:10.37,2013-07-05 23:52:00,
2013-07-05 16:57:00,82.4,55.0,28.96,WSW,248,4.6,4.6,39,0.00,CLR,OVC,0.00,WeatherDisplay:10.37,2013-07-05 23:57:00,
2013-07-05 17:02:00,82.0,54.6,28.96,WNW,292,2.3,2.3,39,0.00,CLR,OVC,0.00,WeatherDisplay:10.37,2013-07-06 00:02:00,
2013-07-05 17:07:00,82.4,54.2,28.96,SW,225,4.6,4.6,38,0.00,CLR,OVC,0.00,WeatherDisplay:10.37,2013-07-06 00:07:00,
2013-07-05 17:12:00,81.7,54.3,28.96,SW,225,2.3,2.3,39,0.00,CLR,OVC,0.00,WeatherDisplay:10.37,2013-07-06 00:12:00,
2013-07-05 17:17:00,82.9,56.1,28.96,North,0,2.3,2.3,40,0.00,CLR,OVC,0.00,WeatherDisplay:10.37,2013-07-06 00:17:00,
2013-07-05 17:22:00,83.5,56.6,28.95,WNW,292,2.3,2.3,40,0.00,CLR,OVC,0.00,WeatherDisplay:10.37,2013-07-06 00:22:00,
2013-07-05 17:27:00,84.0,56.4,28.95,West,270,2.3,2.3,39,0.00,CLR,OVC,0.00,WeatherDisplay:10.37,2013-07-06 00:27:00,
2013-07-05 17:32:00,84.4,55.3,28.95,WNW,292,3.3,3.3,37,0.00,CLR,OVC,0.00,WeatherDisplay:10.37,2013-07-06 00:32:00,
2013-07-05 17:37:00,83.5,55.9,28.95,WSW,248,3.5,3.5,39,0.00,CLR,OVC,0.00,WeatherDisplay:10.37,2013-07-06 00:37:00,
2013-07-05 17:42:00,82.6,55.1,28.95,NE,45,2.3,2.3,39,0.00,CLR,OVC,0.00,WeatherDisplay:10.37,2013-07-06 00:42:00,
2013-07-05 17:47:00,83.1,56.3,28.95,NNW,338,1.2,1.2,40,0.00,CLR,OVC,0.00,WeatherDisplay:10.37,2013-07-06 00:47:00,
2013-07-05 17:48:00,83.3,56.5,28.95,NE,45,1.6,1.6,40,0.00,CLR,OVC,0.00,WeatherDisplay:10.37,2013-07-06 00:48:00,
2013-07-05 17:53:00,83.8,56.9,28.95,SW,225,2.4,2.4,40,0.00,CLR,OVC,0.00,WeatherDisplay:10.37,2013-07-06 00:53:00,
2013-07-05 17:58:00,84.4,56.7,28.95,NNW,338,2.3,2.3,39,0.00,CLR,OVC,0.00,WeatherDisplay:10.37,2013-07-06 00:58:00,
2013-07-05 18:03:00,84.0,56.4,28.95,ESE,112,3.5,3.5,39,0.00,CLR,OVC,0.00,WeatherDisplay:10.37,2013-07-06 01:03:00,
2013-07-05 18:08:00,84.6,56.2,28.95,WNW,292,3.3,3.3,38,0.00,CLR,OVC,0.00,WeatherDisplay:10.37,2013-07-06 01:08:00,
2013-07-05 18:13:00,83.5,55.9,28.95,West,270,4.6,4.6,39,0.00,CLR,OVC,0.00,WeatherDisplay:10.37,2013-07-06 01:13:00,
2013-07-05 18:18:00,83.1,55.6,28.95,East,90,3.5,3.5,39,0.00,CLR,OVC,0.00,WeatherDisplay:10.37,2013-07-06 01:18:00,
2013-07-05 18:23:00,82.6,55.8,28.95,SSE,158,2.3,2.3,40,0.00,CLR,OVC,0.00,WeatherDisplay:10.37,2013-07-06 01:23:00,
2013-07-05 18:28:00,82.9,56.1,28.95,WSW,248,3.5,3.5,40,0.00,CLR,OVC,0.00,WeatherDisplay:10.37,2013-07-06 01:28:00,
2013-07-05 18:33:00,83.3,56.5,28.94,ESE,112,2.3,2.3,40,0.00,CLR,OVC,0.00,WeatherDisplay:10.37,2013-07-06 01:33:00,
2013-07-05 18:38:00,83.5,56.6,28.94,SE,135,2.4,2.4,40,0.00,CLR,OVC,0.00,WeatherDisplay:10.37,2013-07-06 01:38:00,
2013-07-05 18:43:00,82.8,56.0,28.94,West,270,3.5,3.5,40,0.00,CLR,OVC,0.00,WeatherDisplay:10.37,2013-07-06 01:43:00,
2013-07-05 18:48:00,81.7,55.7,28.94,SSW,202,2.3,2.3,41,0.00,CLR,OVC,0.00,WeatherDisplay:10.37,2013-07-06 01:48:00,
2013-07-05 18:53:00,81.3,55.4,28.95,NNW,338,2.3,2.3,41,0.00,CLR,OVC,0.00,WeatherDisplay:10.37,2013-07-06 01:53:00,
2013-07-05 18:58:00,81.7,55.7,28.95,SE,135,2.3,2.3,41,0.00,CLR,OVC,0.00,WeatherDisplay:10.37,2013-07-06 01:58:00,
2013-07-05 19:03:00,81.7,55.7,28.94,East,90,2.3,2.3,41,0.00,CLR,OVC,0.00,WeatherDisplay:10.37,2013-07-06 02:03:00,
2013-07-05 19:08:00,80.4,54.6,28.94,SW,225,2.3,2.3,41,0.00,CLR,OVC,0.00,WeatherDisplay:10.37,2013-07-06 02:08:00,
2013-07-05 19:13:00,79.9,55.4,28.94,SSW,202,2.3,2.3,43,0.00,CLR,OVC,0.00,WeatherDisplay:10.37,2013-07-06 02:13:00,
2013-07-05 19:18:00,80.2,55.1,28.94,SW,225,2.3,2.3,42,0.00,CLR,OVC,0.00,WeatherDisplay:10.37,2013-07-06 02:18:00,
2013-07-05 19:23:00,80.2,54.4,28.94,SW,225,3.5,3.5,41,0.00,CLR,OVC,0.00,WeatherDisplay:10.37,2013-07-06 02:23:00,
2013-07-05 19:28:00,79.7,54.6,28.95,NNE,22,2.3,2.3,42,0.00,CLR,OVC,0.00,WeatherDisplay:10.37,2013-07-06 02:28:00,
2013-07-05 19:33:00,78.8,54.4,28.94,WSW,248,2.3,2.3,43,0.00,CLR,OVC,0.00,WeatherDisplay:10.37,2013-07-06 02:33:00,
2013-07-05 19:38:00,79.2,54.7,28.94,North,0,2.3,2.3,43,0.00,CLR,OVC,0.00,WeatherDisplay:10.37,2013-07-06 02:38:00,
2013-07-05 19:43:00,78.8,54.4,28.94,SSW,202,2.4,2.4,43,0.00,CLR,OVC,0.00,WeatherDisplay:10.37,2013-07-06 02:43:00,
2013-07-05 19:48:00,77.5,53.9,28.94,SSW,202,1.2,1.2,44,0.00,CLR,OVC,0.00,WeatherDisplay:10.37,2013-07-06 02:48:00,
2013-07-05 19:53:00,76.8,53.9,28.95,SW,225,2.3,2.3,45,0.00,CLR,OVC,0.00,WeatherDisplay:10.37,2013-07-06 02:53:00,
2013-07-05 19:58:00,76.5,53.5,28.95,WNW,292,1.8,1.8,45,0.00,CLR,OVC,0.00,WeatherDisplay:10.37,2013-07-06 02:58:00,
2013-07-05 20:03:00,75.7,53.5,28.95,North,0,2.3,2.3,46,0.00,CLR,OVC,0.00,WeatherDisplay:10.37,2013-07-06 03:03:00,
2013-07-05 20:08:00,74.5,52.9,28.95,SE,135,5.8,5.8,47,0.00,CLR,OVC,0.00,WeatherDisplay:10.37,2013-07-06 03:08:00,
2013-07-05 20:13:00,73.9,53.0,28.95,WSW,248,2.3,2.3,48,0.00,CLR,OVC,0.00,WeatherDisplay:10.37,2013-07-06 03:13:00,
2013-07-05 20:18:00,73.8,52.8,28.95,West,270,3.5,3.5,48,0.00,CLR,OVC,0.00,WeatherDisplay:10.37,2013-07-06 03:18:00,
2013-07-05 20:23:00,71.8,52.1,28.95,NNW,338,2.0,2.0,50,0.00,CLR,OVC,0.00,WeatherDisplay:10.37,2013-07-06 03:23:00,
2013-07-05 20:28:00,70.2,51.2,28.95,SSW,202,1.2,1.6,51,0.00,CLR,OVC,0.00,WeatherDisplay:10.37,2013-07-06 03:28:00,
2013-07-05 20:33:00,68.0,50.2,28.95,SE,135,3.3,3.3,53,0.00,CLR,OVC,0.00,WeatherDisplay:10.37,2013-07-06 03:33:00,
2013-07-05 20:38:00,67.1,49.9,28.95,SSE,158,2.3,2.3,54,0.00,CLR,OVC,0.00,WeatherDisplay:10.37,2013-07-06 03:38:00,
2013-07-05 20:43:00,66.0,49.4,28.95,SW,225,1.2,1.2,55,0.00,CLR,OVC,0.00,WeatherDisplay:10.37,2013-07-06 03:43:00,
2013-07-05 20:49:00,64.8,49.2,28.95,SSW,202,2.3,2.3,57,0.00,CLR,OVC,0.00,WeatherDisplay:10.37,2013-07-06 03:49:00,
2013-07-05 20:54:00,63.7,50.0,28.95,NW,315,2.3,2.9,61,0.00,CLR,OVC,0.00,WeatherDisplay:10.37,2013-07-06 03:54:00,
2013-07-05 20:59:00,62.6,49.0,28.95,SE,135,1.8,1.8,61,0.00,CLR,OVC,0.00,WeatherDisplay:10.37,2013-07-06 03:59:00,
2013-07-05 21:01:00,62.2,49.1,28.95,SE,135,2.3,2.3,62,0.00,CLR,OVC,0.00,WeatherDisplay:10.37,2013-07-06 04:01:00,
2013-07-05 21:06:00,61.3,48.6,28.95,SSW,202,1.2,1.2,63,0.00,CLR,OVC,0.00,WeatherDisplay:10.37,2013-07-06 04:06:00,
2013-07-05 21:11:00,60.8,49.0,28.95,SW,225,1.2,1.2,65,0.00,CLR,OVC,0.00,WeatherDisplay:10.37,2013-07-06 04:11:00,
2013-07-05 21:16:00,60.1,48.3,28.95,South,180,2.3,2.3,65,0.00,CLR,OVC,0.00,WeatherDisplay:10.37,2013-07-06 04:16:00,
2013-07-05 21:21:00,59.5,48.6,28.95,South,180,2.3,2.3,67,0.00,CLR,OVC,0.00,WeatherDisplay:10.37,2013-07-06 04:21:00,
2013-07-05 21:26:00,59.2,49.0,28.95,ESE,112,3.5,3.5,69,0.00,CLR,OVC,0.00,WeatherDisplay:10.37,2013-07-06 04:26:00,
2013-07-05 21:31:00,58.6,48.5,28.95,SSE,158,2.4,2.4,69,0.00,CLR,OVC,0.00,WeatherDisplay:10.37,2013-07-06 04:31:00,
2013-07-05 21:36:00,58.3,48.5,28.95,SW,225,2.3,2.3,70,0.00,CLR,OVC,0.00,WeatherDisplay:10.37,2013-07-06 04:36:00,
2013-07-05 21:41:00,57.9,49.3,28.95,WSW,248,3.5,3.5,73,0.00,CLR,OVC,0.00,WeatherDisplay:10.37,2013-07-06 04:41:00,
2013-07-05 21:46:00,57.7,49.1,28.95,SSW,202,4.6,4.6,73,0.00,CLR,OVC,0.00,WeatherDisplay:10.37,2013-07-06 04:46:00,
2013-07-05 21:51:00,57.4,49.2,28.96,SSW,202,2.6,2.6,74,0.00,CLR,OVC,0.00,WeatherDisplay:10.37,2013-07-06 04:51:00,
2013-07-05 21:56:00,57.2,49.3,28.96,North,0,4.6,4.6,75,0.00,CLR,OVC,0.00,WeatherDisplay:10.37,2013-07-06 04:56:00,
2013-07-05 22:01:00,56.8,49.0,28.96,WNW,292,3.5,3.5,75,0.00,CLR,OVC,0.00,WeatherDisplay:10.37,2013-07-06 05:01:00,
2013-07-05 22:06:00,56.7,49.2,28.96,West,270,3.5,3.5,76,0.00,CLR,OVC,0.00,WeatherDisplay:10.37,2013-07-06 05:06:00,
2013-07-05 22:11:00,56.5,49.0,28.95,SW,225,2.3,2.3,76,0.00,CLR,OVC,0.00,WeatherDisplay:10.37,2013-07-06 05:11:00,
2013-07-05 22:16:00,56.1,48.7,28.96,ESE,112,3.5,3.5,76,0.00,CLR,OVC,0.00,WeatherDisplay:10.37,2013-07-06 05:16:00,
2013-07-05 22:21:00,55.9,48.8,28.96,South,180,2.6,2.6,77,0.00,CLR,OVC,0.00,WeatherDisplay:10.37,2013-07-06 05:21:00,
2013-07-05 22:26:00,55.8,49.0,28.96,ESE,112,2.6,2.6,78,0.00,CLR,OVC,0.00,WeatherDisplay:10.37,2013-07-06 05:26:00,
2013-07-05 22:31:00,55.6,48.8,28.96,WSW,248,2.3,2.3,78,0.00,CLR,OVC,0.00,WeatherDisplay:10.37,2013-07-06 05:31:00,
2013-07-05 22:36:00,55.4,48.7,28.96,SW,225,3.3,3.3,78,0.00,CLR,OVC,0.00,WeatherDisplay:10.37,2013-07-06 05:36:00,
2013-07-05 22:41:00,55.0,48.3,28.96,West,270,4.6,4.6,78,0.00,CLR,OVC,0.00,WeatherDisplay:10.37,2013-07-06 05:41:00,
2013-07-05 22:46:00,54.9,48.1,28.95,SSE,158,3.5,3.5,78,0.00,CLR,OVC,0.00,WeatherDisplay:10.37,2013-07-06 05:46:00,
2013-07-05 22:51:00,54.7,48.0,28.96,East,90,2.3,2.3,78,0.00,CLR,OVC,0.00,WeatherDisplay:10.37,2013-07-06 05:51:00,
2013-07-05 22:56:00,54.7,48.3,28.96,SSE,158,2.6,2.6,79,0.00,CLR,OVC,0.00,WeatherDisplay:10.37,2013-07-06 05:56:00,
2013-07-05 23:01:00,54.5,48.5,28.96,NNE,22,3.5,3.5,80,0.00,CLR,OVC,0.00,WeatherDisplay:10.37,2013-07-06 06:01:00,
2013-07-05 23:06:00,54.3,48.6,28.96,West,270,3.3,3.3,81,0.00,CLR,OVC,0.00,WeatherDisplay:10.37,2013-07-06 06:06:00,
2013-07-05 23:11:00,54.1,48.1,28.96,NNW,338,2.3,2.3,80,0.00,CLR,OVC,0.00,WeatherDisplay:10.37,2013-07-06 06:11:00,
2013-07-05 23:16:00,54.0,47.9,28.96,ENE,68,2.3,2.6,80,0.00,CLR,OVC,0.00,WeatherDisplay:10.37,2013-07-06 06:16:00,
2013-07-05 23:21:00,54.0,48.3,28.96,ENE,68,3.5,3.5,81,0.00,CLR,OVC,0.00,WeatherDisplay:10.37,2013-07-06 06:21:00,
2013-07-05 23:26:00,53.8,47.8,28.96,West,270,2.3,2.3,80,0.00,CLR,OVC,0.00,WeatherDisplay:10.37,2013-07-06 06:26:00,
2013-07-05 23:31:00,53.6,48.2,28.96,NNW,338,2.3,2.3,82,0.00,CLR,OVC,0.00,WeatherDisplay:10.37,2013-07-06 06:31:00,
2013-07-05 23:36:00,53.6,48.2,28.96,North,0,2.3,2.4,82,0.00,CLR,OVC,0.00,WeatherDisplay:10.37,2013-07-06 06:36:00,
2013-07-05 23:41:00,53.6,48.2,28.96,North,0,2.3,2.3,82,0.00,CLR,OVC,0.00,WeatherDisplay:10.37,2013-07-06 06:41:00,
2013-07-05 23:46:00,53.4,48.1,28.96,SW,225,2.3,2.3,82,0.00,CLR,OVC,0.00,WeatherDisplay:10.37,2013-07-06 06:46:00,
2013-07-05 23:51:00,53.2,47.9,28.96,North,0,2.3,2.3,82,0.00,CLR,OVC,0.00,WeatherDisplay:10.37,2013-07-06 06:51:00,
2013-07-05 23:57:00,53.2,47.9,28.96,SW,225,1.4,1.4,82,0.00,CLR,OVC,0.00,WeatherDisplay:10.37,2013-07-06 06:57:00,